createdAt,value
2018-06-21T00:01:01.918Z,16.10
2018-06-21T00:05:06.519Z,16.10
2018-06-21T00:09:10.993Z,16.10
2018-06-21T00:13:15.394Z,16.10
2018-06-21T00:17:19.644Z,16.00
2018-06-21T00:21:24.025Z,16.00
2018-06-21T00:25:28.319Z,16.00
2018-06-21T00:29:32.527Z,15.90
2018-06-21T00:33:36.743Z,15.90
2018-06-21T00:37:41.087Z,15.90
2018-06-21T00:41:45.388Z,15.80
2018-06-21T00:45:49.807Z,15.80
2018-06-21T00:49:54.073Z,15.80
2018-06-21T00:53:58.715Z,15.70
2018-06-21T00:58:02.958Z,15.60
2018-06-21T01:02:07.173Z,15.60
2018-06-21T01:06:11.473Z,15.60
2018-06-21T01:10:15.782Z,15.60
2018-06-21T01:14:20.209Z,15.60
2018-06-21T01:18:24.428Z,15.60
2018-06-21T01:22:28.788Z,15.50
2018-06-21T01:30:37.101Z,15.40
2018-06-21T01:34:42.510Z,15.40
2018-06-21T01:38:46.776Z,15.30
2018-06-21T01:42:51.054Z,15.30
2018-06-21T01:46:55.281Z,15.30
2018-06-21T01:50:59.617Z,15.30
2018-06-21T01:55:03.812Z,15.20
2018-06-21T01:59:07.825Z,15.20
2018-06-21T02:03:12.263Z,15.20
2018-06-21T02:07:16.597Z,15.10
2018-06-21T02:11:20.829Z,15.10
2018-06-21T02:15:25.170Z,15.00
2018-06-21T02:19:29.436Z,15.10
2018-06-21T02:23:33.824Z,15.00
2018-06-21T02:27:38.081Z,15.00
2018-06-21T02:31:42.333Z,15.00
2018-06-21T02:35:46.709Z,15.00
2018-06-21T02:39:50.954Z,14.90
2018-06-21T02:43:55.353Z,14.80
2018-06-21T02:47:59.685Z,14.90
2018-06-21T02:52:04.103Z,14.90
2018-06-21T03:00:12.275Z,14.80
2018-06-21T03:04:16.528Z,14.80
2018-06-21T03:08:20.871Z,14.80
2018-06-21T03:12:25.435Z,14.70
2018-06-21T03:16:29.912Z,14.80
2018-06-21T03:20:34.145Z,14.70
2018-06-21T03:24:38.508Z,14.80
2018-06-21T03:28:42.725Z,14.80
2018-06-21T03:32:46.937Z,14.80
2018-06-21T03:36:51.229Z,14.80
2018-06-21T03:40:55.479Z,14.90
2018-06-21T03:44:59.837Z,15.00
2018-06-21T03:49:04.043Z,15.00
2018-06-21T03:53:08.359Z,14.90
2018-06-21T03:57:12.606Z,15.00
2018-06-21T04:05:20.721Z,15.20
2018-06-21T04:09:25.454Z,15.30
2018-06-21T04:13:30.244Z,15.30
2018-06-21T04:21:38.370Z,15.50
2018-06-21T04:25:42.609Z,15.50
2018-06-21T04:29:46.823Z,15.60
2018-06-21T04:33:51.131Z,15.80
2018-06-21T04:37:55.564Z,15.80
2018-06-21T04:41:59.872Z,16.00
2018-06-21T04:46:04.107Z,16.00
2018-06-21T04:50:08.429Z,16.10
2018-06-21T04:54:12.605Z,16.30
2018-06-21T04:58:16.901Z,16.40
2018-06-21T05:02:21.131Z,16.50
2018-06-21T05:06:25.802Z,16.60
2018-06-21T05:10:30.333Z,16.80
2018-06-21T05:14:35.068Z,17.00
2018-06-21T05:18:39.369Z,17.10
2018-06-21T05:22:43.703Z,17.30
2018-06-21T05:26:47.908Z,17.50
2018-06-21T05:30:52.134Z,17.60
2018-06-21T05:34:56.572Z,17.70
2018-06-21T05:39:00.764Z,17.90
2018-06-21T05:43:05.574Z,18.20
2018-06-21T05:47:09.771Z,18.40
2018-06-21T05:51:14.132Z,18.50
2018-06-21T05:55:18.371Z,18.60
2018-06-21T05:59:22.698Z,18.80
2018-06-21T06:03:26.883Z,18.90
2018-06-21T06:07:31.744Z,19.10
2018-06-21T06:11:35.976Z,19.40
2018-06-21T06:15:40.189Z,19.60
2018-06-21T06:19:44.409Z,19.80
2018-06-21T06:23:48.755Z,19.90
2018-06-21T06:27:53.064Z,20.20
2018-06-21T06:31:57.373Z,20.70
2018-06-21T06:36:05.567Z,21.10
2018-06-21T06:40:09.752Z,21.30
2018-06-21T06:44:14.059Z,21.50
2018-06-21T06:48:18.295Z,21.50
2018-06-21T06:52:22.726Z,21.70
2018-06-21T06:56:26.945Z,22.00
2018-06-21T07:00:31.200Z,22.10
2018-06-21T07:04:35.444Z,22.20
2018-06-21T07:08:39.623Z,22.30
2018-06-21T07:12:43.915Z,22.40
2018-06-21T07:16:48.090Z,22.50
2018-06-21T07:20:52.457Z,22.60
2018-06-21T07:24:56.611Z,22.80
2018-06-21T07:29:00.830Z,22.80
2018-06-21T07:33:05.101Z,23.00
2018-06-21T07:37:09.333Z,23.10
2018-06-21T07:41:13.613Z,23.20
2018-06-21T07:45:17.928Z,23.40
2018-06-21T07:49:22.142Z,23.60
2018-06-21T07:53:26.541Z,23.80
2018-06-21T07:57:30.717Z,24.00
2018-06-21T08:01:35.120Z,24.20
2018-06-21T08:05:39.363Z,24.30
2018-06-21T08:09:43.581Z,24.50
2018-06-21T08:13:48.423Z,24.60
2018-06-21T08:17:52.766Z,24.80
2018-06-21T08:21:56.959Z,25.10
2018-06-21T08:26:01.289Z,25.20
2018-06-21T08:30:06.300Z,25.30
2018-06-21T08:34:10.945Z,25.50
2018-06-21T08:38:15.506Z,25.70
2018-06-21T08:42:20.272Z,25.90
2018-06-21T08:46:24.905Z,26.10
2018-06-21T08:50:36.377Z,26.20
2018-06-21T08:54:41.085Z,26.70
2018-06-21T08:58:45.705Z,28.10
2018-06-21T09:02:50.255Z,28.40
2018-06-21T09:06:54.918Z,28.30
2018-06-21T09:10:59.557Z,28.80
2018-06-21T09:15:18.990Z,29.30
2018-06-21T09:19:23.770Z,29.70
2018-06-21T09:23:28.720Z,29.00
2018-06-21T09:27:33.319Z,30.00
2018-06-21T09:31:49.531Z,30.80
2018-06-21T09:35:53.973Z,30.90
2018-06-21T09:40:03.427Z,31.40
2018-06-21T09:44:13.160Z,31.90
2018-06-21T09:48:22.823Z,31.10
2018-06-21T09:52:27.452Z,30.70
2018-06-21T09:56:31.825Z,30.80
2018-06-21T10:00:41.386Z,30.80
2018-06-21T10:04:45.561Z,31.10
2018-06-21T10:08:49.975Z,32.40
2018-06-21T10:12:54.164Z,31.80
2018-06-21T10:16:58.512Z,32.00
2018-06-21T10:21:03.263Z,32.60
2018-06-21T10:25:07.636Z,32.70
2018-06-21T10:29:11.883Z,33.10
2018-06-21T10:33:16.073Z,32.10
2018-06-21T10:37:20.366Z,32.70
2018-06-21T10:41:24.624Z,34.30
2018-06-21T10:45:28.799Z,34.40
2018-06-21T10:49:33.041Z,34.50
2018-06-21T10:53:37.289Z,34.00
2018-06-21T10:57:41.537Z,34.60
2018-06-21T11:01:46.465Z,34.40
2018-06-21T11:05:51.014Z,34.70
2018-06-21T11:09:55.225Z,34.00
2018-06-21T11:13:59.726Z,34.00
2018-06-21T11:18:03.971Z,34.30
2018-06-21T11:22:08.197Z,34.40
2018-06-21T11:26:12.677Z,34.90
2018-06-21T11:30:16.937Z,35.10
2018-06-21T11:38:25.044Z,36.40
2018-06-21T11:42:29.355Z,36.30
2018-06-21T11:46:33.604Z,36.20
2018-06-21T11:50:38.037Z,36.20
2018-06-21T11:54:42.325Z,36.30
2018-06-21T11:58:46.716Z,36.40
2018-06-21T12:02:50.962Z,36.10
2018-06-21T12:06:55.235Z,36.40
2018-06-21T12:10:59.594Z,36.40
2018-06-21T12:15:04.107Z,36.70
2018-06-21T12:19:08.487Z,37.50
2018-06-21T12:23:13.059Z,36.40
2018-06-21T12:27:17.455Z,36.80
2018-06-21T12:31:27.459Z,38.10
2018-06-21T12:35:31.779Z,39.00
2018-06-21T12:39:36.709Z,39.50
2018-06-21T12:43:41.529Z,38.90
2018-06-21T12:47:45.968Z,38.90
2018-06-21T12:51:50.355Z,38.30
2018-06-21T12:55:54.627Z,36.20
2018-06-21T12:59:58.899Z,37.80
2018-06-21T13:04:03.297Z,37.00
2018-06-21T13:08:09.333Z,38.10
2018-06-21T13:12:28.933Z,38.90
2018-06-21T13:16:33.330Z,38.80
2018-06-21T13:20:37.563Z,39.20
2018-06-21T13:24:41.865Z,39.20
2018-06-21T13:28:46.361Z,39.50
2018-06-21T13:32:51.149Z,40.00
2018-06-21T13:36:55.688Z,39.00
2018-06-21T13:41:00.077Z,40.70
2018-06-21T13:45:05.037Z,40.10
2018-06-21T13:49:10.030Z,38.20
2018-06-21T13:53:14.297Z,38.60
2018-06-21T13:57:18.731Z,38.30
2018-06-21T14:01:23.535Z,39.20
2018-06-21T14:05:27.987Z,39.50
2018-06-21T14:09:32.233Z,38.80
2018-06-21T14:13:37.789Z,39.60
2018-06-21T14:17:42.028Z,40.60
2018-06-21T14:21:46.393Z,40.30
2018-06-21T14:25:50.654Z,40.70
2018-06-21T14:29:55.151Z,39.90
2018-06-21T14:33:59.482Z,40.90
2018-06-21T14:38:03.821Z,41.20
2018-06-21T14:42:08.348Z,41.40
2018-06-21T14:46:13.352Z,39.90
2018-06-21T14:50:17.757Z,38.10
2018-06-21T14:54:22.061Z,38.30
2018-06-21T14:58:27.540Z,38.10
2018-06-21T15:02:31.996Z,36.10
2018-06-21T15:06:36.387Z,34.70
2018-06-21T15:10:41.135Z,33.60
2018-06-21T15:14:45.413Z,33.30
2018-06-21T15:18:49.801Z,32.30
2018-06-21T15:22:54.228Z,32.00
2018-06-21T15:27:00.435Z,31.20
2018-06-21T15:31:04.829Z,30.60
2018-06-21T15:35:11.768Z,30.60
2018-06-21T15:39:23.512Z,31.40
2018-06-21T15:43:27.786Z,31.40
2018-06-21T15:47:33.201Z,30.70
2018-06-21T15:51:37.862Z,29.90
2018-06-21T15:55:42.197Z,29.30
2018-06-21T15:59:46.447Z,29.10
2018-06-21T16:03:50.693Z,28.40
2018-06-21T16:07:54.878Z,28.20
2018-06-21T16:11:59.224Z,28.10
2018-06-21T16:20:07.225Z,27.70
2018-06-21T16:24:11.538Z,27.60
2018-06-21T16:28:15.783Z,27.40
2018-06-21T16:32:20.036Z,27.20
2018-06-21T16:36:24.277Z,27.10
2018-06-21T16:40:29.080Z,27.20
2018-06-21T16:44:33.493Z,27.10
2018-06-21T16:48:37.837Z,26.80
2018-06-21T16:52:42.861Z,26.70
2018-06-21T16:56:47.506Z,26.30
2018-06-21T17:00:51.766Z,25.80
2018-06-21T17:04:56.027Z,25.40
2018-06-21T17:09:00.499Z,25.10
2018-06-21T17:13:04.809Z,24.70
2018-06-21T17:17:09.090Z,24.40
2018-06-21T17:21:13.509Z,24.00
2018-06-21T17:25:17.822Z,23.40
2018-06-21T17:29:22.236Z,23.10
2018-06-21T17:33:26.628Z,22.80
2018-06-21T17:37:30.952Z,22.30
2018-06-21T17:41:35.326Z,21.40
2018-06-21T17:45:39.813Z,20.20
2018-06-21T17:49:44.085Z,19.30
2018-06-21T17:53:48.354Z,18.80
2018-06-21T17:57:52.693Z,18.60
2018-06-21T18:02:07.595Z,18.60
2018-06-21T18:06:17.543Z,18.60
2018-06-21T18:10:27.224Z,18.70
2018-06-21T18:14:31.654Z,18.60
2018-06-21T18:18:36.175Z,18.60
2018-06-21T18:22:40.760Z,18.50
2018-06-21T18:26:45.010Z,18.50
2018-06-21T18:30:49.408Z,18.60
2018-06-21T18:34:53.707Z,18.50
2018-06-21T18:38:58.835Z,18.30
2018-06-21T18:43:03.198Z,18.10
2018-06-21T18:47:08.287Z,18.10
2018-06-21T18:51:12.812Z,18.10
2018-06-21T18:55:17.182Z,18.30
2018-06-21T18:59:21.369Z,18.40
2018-06-21T19:03:25.669Z,18.40
2018-06-21T19:07:31.431Z,18.50
2018-06-21T19:11:42.052Z,18.50
2018-06-21T19:15:46.370Z,18.50
2018-06-21T19:19:50.773Z,18.50
2018-06-21T19:23:56.304Z,18.40
2018-06-21T19:28:00.680Z,18.30
2018-06-21T19:32:05.032Z,18.30
2018-06-21T19:36:09.274Z,18.40
2018-06-21T19:40:13.825Z,18.40
2018-06-21T19:44:18.037Z,18.30
2018-06-21T19:48:22.570Z,18.30
2018-06-21T19:52:26.755Z,18.30
2018-06-21T19:56:31.222Z,18.40
2018-06-21T20:00:35.493Z,18.40
2018-06-21T20:04:39.939Z,18.40
2018-06-21T20:08:44.483Z,18.40
2018-06-21T20:12:49.696Z,18.40
2018-06-21T20:16:56.862Z,18.40
2018-06-21T20:21:02.507Z,18.40
2018-06-21T20:29:16.182Z,18.40
2018-06-21T20:33:20.696Z,18.40
2018-06-21T20:37:24.971Z,18.40
2018-06-21T20:45:52.313Z,18.30
2018-06-21T20:49:58.859Z,18.30
2018-06-21T20:54:03.326Z,18.20
2018-06-21T20:58:07.727Z,18.10
2018-06-21T21:02:12.028Z,18.20
2018-06-21T21:10:20.463Z,18.30
2018-06-21T21:14:24.675Z,18.30
2018-06-21T21:18:28.965Z,18.20
2018-06-21T21:22:33.570Z,18.20
2018-06-21T21:26:37.757Z,18.10
2018-06-21T21:30:42.162Z,18.10
2018-06-21T21:34:46.416Z,18.00
2018-06-21T21:38:50.691Z,17.90
2018-06-21T21:42:54.882Z,17.90
2018-06-21T21:46:59.395Z,18.00
2018-06-21T21:51:03.722Z,17.90
2018-06-21T21:55:08.015Z,17.90
2018-06-21T21:59:12.237Z,17.90
2018-06-21T22:03:16.565Z,18.00
2018-06-21T22:07:20.820Z,18.00
2018-06-21T22:11:25.315Z,17.90
2018-06-21T22:15:29.583Z,17.90
2018-06-21T22:19:34.135Z,17.80
2018-06-21T22:23:38.367Z,17.70
2018-06-21T22:27:42.704Z,17.70
2018-06-21T22:31:46.949Z,17.70
2018-06-21T22:35:51.427Z,17.60
2018-06-21T22:39:55.653Z,17.60
2018-06-21T22:48:03.733Z,17.50
2018-06-21T22:52:08.279Z,17.40
2018-06-21T22:56:12.462Z,17.40
2018-06-21T23:00:17.127Z,17.40
2018-06-21T23:04:21.415Z,17.40
2018-06-21T23:08:25.712Z,17.40
2018-06-21T23:12:29.872Z,17.40
2018-06-21T23:16:34.191Z,17.30
2018-06-21T23:24:42.340Z,17.20
2018-06-21T23:32:50.529Z,17.10
2018-06-21T23:36:54.747Z,17.20
2018-06-21T23:40:59.072Z,17.40
2018-06-21T23:45:03.283Z,17.40
2018-06-21T23:53:11.272Z,17.20
2018-06-21T23:57:15.623Z,17.20
